Flight Track Log - Related Links

Times and Time Zones

All times are in EDT time to prevent confusion due to time zone crossing. See the MAL8056 flight status page for this flight to view local times or setup timezone preferences in your user account.

Time Position Orientation Groundspeed Altitude Reporting Facility
EDT Latitude Longitude Course Direction KTS MPH feet Rate Location/Type
Mon 08:11:05 AM 43.6667 -79.6333 360° North 80 92 900  Level Toronto Center
Mon 08:12:05 AM 43.7000 -79.6333 360° North 110 127 1,600 800 Climbing Toronto Center
Mon 08:13:05 AM 43.7333 -79.6333 360° North 140 161 2,500 900 Climbing Toronto Center
Mon 08:14:05 AM 43.7833 -79.6500 346° North 150 173 3,400 950 Climbing Toronto Center
Mon 08:15:05 AM 43.8167 -79.6500 360° North 140 161 4,400 800 Climbing Toronto Center
Mon 08:16:05 AM 43.8500 -79.6500 360° North 140 161 5,000 400 Climbing Toronto Center
Mon 08:17:05 AM 43.9000 -79.6500 360° North 170 196 5,200 450 Climbing Toronto Center
Mon 08:18:05 AM 43.9500 -79.6833 334° Northwest 160 184 5,900 700 Climbing Toronto Center
Mon 08:19:05 AM 43.9833 -79.6833 360° North 150 173 6,600 700 Climbing Toronto Center
Mon 08:20:05 AM 44.0167 -79.7000 340° North 150 173 7,300 650 Climbing Toronto Center
Mon 08:21:05 AM 44.0667 -79.7333 334° Northwest 150 173 7,900 350 Climbing Toronto Center
Mon 08:22:05 AM 44.1167 -79.7500 347° North 170 196 8,000 50 Climbing Toronto Center
Mon 08:23:05 AM 44.1500 -79.7500 360° North 180 207 8,000  Level Toronto Center
Mon 08:24:05 AM 44.2000 -79.7667 347° North 180 207 8,000  Level Toronto Center
Mon 08:25:05 AM 44.2500 -79.8000 334° Northwest 180 207 8,000  Level Toronto Center
Mon 08:26:05 AM 44.3000 -79.8167 347° North 180 207 8,000  Level Toronto Center
Mon 08:27:05 AM 44.3500 -79.8500 335° Northwest 180 207 8,000  Level Toronto Center
Mon 08:28:05 AM 44.3833 -79.8500 360° North 180 207 8,000  Level Toronto Center
Mon 08:29:05 AM 44.4333 -79.8667 347° North 170 196 8,000  Level Toronto Center
Mon 08:30:05 AM 44.4833 -79.8833 347° North 170 196 8,000  Level Toronto Center
Mon 08:31:05 AM 44.5333 -79.9167 335° Northwest 170 196 8,000  Level Toronto Center
Mon 08:32:05 AM 44.5833 -79.9333 347° North 170 196 8,000  Level Toronto Center
Mon 08:33:05 AM 44.6167 -79.9333 360° North 180 207 8,000  Level Toronto Center
Mon 08:34:05 AM 44.6667 -79.9667 335° Northwest 180 207 8,000  Level Toronto Center
Mon 08:35:05 AM 44.7167 -79.9833 347° North 180 207 8,000  Level Toronto Center
Mon 08:36:05 AM 44.7667 -80.0000 347° North 180 207 8,000  Level Toronto Center
Mon 08:37:05 AM 44.8167 -80.0333 335° Northwest 180 207 8,000  Level Toronto Center
Mon 08:38:05 AM 44.8667 -80.0500 347° North 180 207 8,000  Level Toronto Center
Mon 08:39:05 AM 44.9167 -80.0500 360° North 180 207 8,000  Level Toronto Center
Mon 08:40:05 AM 44.9500 -80.0833 325° Northwest 180 207 8,000  Level Toronto Center
Mon 08:41:05 AM 45.0000 -80.1000 347° North 180 207 8,000  Level Toronto Center
Mon 08:42:05 AM 45.0500 -80.1333 335° Northwest 180 207 8,000  Level Toronto Center
Mon 08:43:05 AM 45.1000 -80.1333 360° North 170 196 8,000  Level Toronto Center
Mon 08:44:05 AM 45.1500 -80.1500 347° North 180 207 8,000  Level Toronto Center
Mon 08:45:05 AM 45.1833 -80.1833 325° Northwest 170 196 8,000  Level Toronto Center
Mon 08:46:05 AM 45.2333 -80.2000 347° North 170 196 8,000  Level Toronto Center
Mon 08:47:05 AM 45.2833 -80.2167 347° North 170 196 8,000  Level Toronto Center
Mon 08:48:05 AM 45.3333 -80.2333 347° North 170 196 8,000  Level Toronto Center
Mon 08:49:05 AM 45.3667 -80.2500 341° North 170 196 8,000  Level Toronto Center
Mon 08:50:05 AM 45.4167 -80.2667 347° North 170 196 8,000  Level Toronto Center
Mon 08:51:05 AM 45.4667 -80.3000 335° Northwest 170 196 8,000  Level Toronto Center
Mon 08:52:05 AM 45.5167 -80.3000 360° North 170 196 8,000  Level Toronto Center
Mon 08:53:05 AM 45.5500 -80.3167 341° North 170 196 8,000  Level Toronto Center
Mon 08:54:05 AM 45.6000 -80.3500 335° Northwest 170 196 8,000  Level Toronto Center
Mon 08:55:05 AM 45.6500 -80.3667 347° North 170 196 8,000  Level Toronto Center
Mon 08:56:05 AM 45.6833 -80.3667 360° North 170 196 8,000  Level Toronto Center
Mon 08:57:05 AM 45.7333 -80.4000 335° Northwest 170 196 8,000  Level Toronto Center
Mon 08:58:05 AM 45.7833 -80.4000 360° North 170 196 8,000  Level Toronto Center
Mon 08:59:05 AM 45.8333 -80.4167 347° North 170 196 8,000  Level Toronto Center
Mon 09:00:05 AM 45.8833 -80.4167 360° North 170 196 8,000  Level Toronto Center
Mon 09:01:05 AM 45.9333 -80.4500 335° Northwest 170 196 8,000  Level Toronto Center
Mon 09:02:05 AM 45.9667 -80.4500 360° North 170 196 8,000  Level Toronto Center
Mon 09:03:05 AM 46.0167 -80.4667 347° North 170 196 8,000  Level Toronto Center
Mon 09:04:05 AM 46.0667 -80.4667 360° North 170 196 8,000 -150 Level Toronto Center
Mon 09:05:05 AM 46.1167 -80.4667 360° North 170 196 7,700 -350 Descending Toronto Center
Mon 09:06:05 AM 46.1667 -80.5000 335° Northwest 180 207 7,300 -350 Descending Toronto Center
Mon 09:07:05 AM 46.2167 -80.5000 360° North 180 207 7,000 -350 Descending Toronto Center
Mon 09:08:05 AM 46.2667 -80.5167 347° North 180 207 6,600 -350 Descending Toronto Center
Mon 09:09:05 AM 46.3167 -80.5167 360° North 180 207 6,300 -300 Descending Toronto Center
Mon 09:10:05 AM 46.3667 -80.5500 335° Northwest 180 207 6,000 -350 Descending Toronto Center
Mon 09:11:05 AM 46.4167 -80.5500 360° North 180 207 5,600 -350 Descending Toronto Center
Mon 09:12:05 AM 46.4667 -80.5833 335° Northwest 180 207 5,300 -350 Descending Toronto Center
Mon 09:13:05 AM 46.5167 -80.5833 360° North 180 207 4,900 -350 Descending Toronto Center
Mon 09:14:05 AM 46.5500 -80.6000 341° North 180 207 4,600 -300 Descending Toronto Center
Mon 09:15:05 AM 46.6000 -80.6000 360° North 180 207 4,300 -350 Descending Toronto Center
Mon 09:16:05 AM 46.6500 -80.6333 335° Northwest 180 207 3,900 -450 Descending Toronto Center
Mon 09:17:05 AM 46.7000 -80.6333 360° North 190 219 3,400 -200 Descending Toronto Center
Mon 09:18:05 AM 46.7500 -80.6500 347° North 180 207 3,500 50 Climbing Toronto Center
Mon 09:19:05 AM 46.7667 -80.6833 306° West 110 127 3,500  Level Toronto Center
Mon 09:20:05 AM 46.7333 -80.7000 199° South 110 127 3,500 -250 Level Toronto Center
Mon 09:21:05 AM 46.7000 -80.7000 180° South 110 127 3,000 -550 Descending Toronto Center
Mon 09:22:05 AM 46.6833 -80.7333 234° Southwest 110 127 2,400 -550 Descending Toronto Center
Mon 09:23:05 AM 46.6500 -80.7500 199° South 100 115 1,900 -500 Descending Toronto Center

Login

Don't have an account? Register now (free) for customized features, flight alerts, and more!